Time;durP1;ratioP1;P1;durP2;ratioP2;P2;SDS_P1;SDS_P2;PMS_P1;PMS_P2;Temp;Humidity;BMP_temperature;BMP_pressure;BME280_temperature;BME280_humidity;BME280_pressure;Samples;Min_cycle;Max_cycle;Signal;HPM_P1;HPM_P2
2022/05/18 00:00:02;;;;;;;5.90;5.00;;;;;;;22.61;50.10;94948.88;4971262;28;20199;-67
2022/05/18 00:02:36;;;;;;;6.50;5.17;;;;;;;22.82;49.47;94946.94;4971198;28;20464;-68
2022/05/18 00:05:03;;;;;;;7.70;5.10;;;;;;;22.92;49.12;94945.72;4971504;28;20891;-66
2022/05/18 00:07:30;;;;;;;5.47;4.90;;;;;;;22.82;49.64;94940.81;4970183;28;20439;-66
2022/05/18 00:09:58;;;;;;;6.37;5.30;;;;;;;22.77;49.58;94944.47;4970916;28;20230;-66
2022/05/18 00:12:26;;;;;;;5.87;5.00;;;;;;;22.36;51.03;94941.06;4971238;28;20435;-66
2022/05/18 00:14:54;;;;;;;9.33;5.10;;;;;;;22.06;51.24;94937.72;4970893;28;20957;-67
2022/05/18 00:17:20;;;;;;;5.20;4.70;;;;;;;21.87;51.62;94935.50;4970927;28;20923;-65
2022/05/18 00:19:48;;;;;;;5.70;5.20;;;;;;;22.43;50.84;94936.78;4971127;28;20485;-66
2022/05/18 00:22:15;;;;;;;6.70;5.63;;;;;;;21.84;52.03;94940.72;4970495;28;20489;-66
2022/05/18 00:24:42;;;;;;;9.30;5.37;;;;;;;22.00;51.80;94941.69;4970810;28;20269;-65
2022/05/18 00:27:09;;;;;;;7.33;4.87;;;;;;;22.25;50.96;94943.38;4970760;28;20701;-66
2022/05/18 00:29:36;;;;;;;5.77;5.27;;;;;;;22.02;51.67;94928.81;4970839;28;20451;-66
2022/05/18 00:32:03;;;;;;;6.00;5.43;;;;;;;22.40;50.76;94929.44;4970704;28;20849;-66
2022/05/18 00:34:29;;;;;;;5.73;5.10;;;;;;;22.47;50.37;94931.56;4970666;28;20469;-66
2022/05/18 00:36:56;;;;;;;6.07;5.27;;;;;;;22.28;50.77;94934.69;4970623;28;20490;-66
2022/05/18 00:39:23;;;;;;;6.70;5.53;;;;;;;22.08;51.00;94951.50;4970627;28;20438;-67
2022/05/18 00:41:50;;;;;;;5.90;5.30;;;;;;;22.05;50.77;94944.94;4970644;28;20894;-66
2022/05/18 00:44:17;;;;;;;6.17;5.00;;;;;;;22.24;50.26;94944.50;4970383;28;20873;-68
2022/05/18 00:46:45;;;;;;;6.10;5.50;;;;;;;22.41;50.07;94949.66;4970557;28;20450;-67
2022/05/18 00:49:12;;;;;;;5.97;5.47;;;;;;;22.05;50.54;94938.81;4970384;28;20878;-66
2022/05/18 00:51:44;;;;;;;11.00;5.70;;;;;;;21.99;51.26;94953.47;4970595;28;20434;-68
2022/05/18 00:54:22;;;;;;;6.60;5.30;;;;;;;22.11;51.13;94956.22;4970327;28;20447;-67
2022/05/18 00:57:15;;;;;;;6.57;5.97;;;;;;;22.30;50.19;94948.50;4970367;28;20486;-68
2022/05/18 00:59:46;;;;;;;6.20;5.60;;;;;;;21.78;51.73;94936.63;4970722;28;20446;-67
2022/05/18 01:02:13;;;;;;;6.20;5.50;;;;;;;21.95;51.10;94953.31;4970058;28;20969;-67
2022/05/18 01:04:45;;;;;;;8.43;5.77;;;;;;;21.77;51.75;94956.44;4970302;28;20452;-66
2022/05/18 01:07:20;;;;;;;6.23;5.63;;;;;;;21.91;50.92;94946.31;4970186;28;20482;-66
2022/05/18 01:09:49;;;;;;;6.67;5.53;;;;;;;22.19;50.35;94949.25;4970157;28;20449;-67
2022/05/18 01:12:19;;;;;;;6.47;5.57;;;;;;;21.40;52.09;94951.94;4970405;28;20447;-65
2022/05/18 01:15:04;;;;;;;7.10;6.40;;;;;;;21.58;51.52;94937.41;4970426;28;21283;-66
2022/05/18 01:17:40;;;;;;;7.17;5.83;;;;;;;21.56;51.68;94945.72;4971528;28;20486;-66
2022/05/18 01:20:14;;;;;;;6.50;5.77;;;;;;;21.70;51.53;94945.47;4975099;28;20460;-66
2022/05/18 01:23:05;;;;;;;11.80;6.20;;;;;;;21.98;50.59;94941.25;4974468;28;21272;-66
2022/05/18 01:25:50;;;;;;;7.10;6.40;;;;;;;21.98;50.27;94942.03;4975096;28;20435;-67
2022/05/18 01:28:17;;;;;;;6.60;6.00;;;;;;;21.80;50.83;94939.78;4975481;28;20450;-66
2022/05/18 01:30:48;;;;;;;7.70;5.80;;;;;;;21.80;50.28;94923.78;4975935;28;20454;-66
2022/05/18 01:33:18;;;;;;;7.73;6.50;;;;;;;22.03;49.90;94928.47;4975288;28;20442;-66
2022/05/18 01:35:47;;;;;;;8.50;6.40;;;;;;;21.86;50.33;94938.50;4975355;28;20443;-67
2022/05/18 01:38:15;;;;;;;10.60;6.60;;;;;;;21.69;50.75;94922.59;4958336;28;20455;-66
2022/05/18 01:40:48;;;;;;;8.77;6.77;;;;;;;21.86;50.68;94922.50;4973756;28;20477;-67
2022/05/18 01:43:15;;;;;;;7.37;6.67;;;;;;;21.99;50.52;94924.09;4973726;28;20427;-66
2022/05/18 01:45:42;;;;;;;6.93;6.33;;;;;;;21.90;50.27;94928.72;4974121;28;20446;-67
2022/05/18 01:48:13;;;;;;;10.03;6.73;;;;;;;21.62;51.32;94916.97;4973986;28;20427;-67
2022/05/18 01:50:41;;;;;;;7.97;6.57;;;;;;;21.48;51.61;94927.09;4973724;28;20460;-66
2022/05/18 01:53:09;;;;;;;7.70;6.67;;;;;;;21.72;50.95;94925.38;4973580;28;21066;-67
2022/05/18 01:55:36;;;;;;;8.90;7.10;;;;;;;21.55;50.98;94922.06;4973620;28;20530;-67
2022/05/18 01:58:04;;;;;;;9.57;6.60;;;;;;;21.66;51.01;94920.56;4973455;28;21008;-67
2022/05/18 02:00:32;;;;;;;7.13;6.47;;;;;;;21.89;50.11;94913.84;4973987;28;20438;-68
2022/05/18 02:02:59;;;;;;;6.70;6.10;;;;;;;22.18;49.70;94919.09;4973923;28;20450;-68
2022/05/18 02:05:26;;;;;;;8.00;6.10;;;;;;;21.91;49.75;94919.63;4973122;28;20453;-67
2022/05/18 02:07:53;;;;;;;9.77;6.60;;;;;;;21.84;49.99;94912.13;4973644;28;20510;-67
2022/05/18 02:10:20;;;;;;;6.87;6.20;;;;;;;22.05;49.40;94909.47;4973333;28;20451;-67
2022/05/18 02:12:47;;;;;;;7.40;6.60;;;;;;;22.20;48.86;94911.53;4973514;28;20850;-68
2022/05/18 02:15:13;;;;;;;7.37;6.60;;;;;;;22.42;48.78;94921.09;4972745;28;20833;-67
2022/05/18 02:17:41;;;;;;;6.53;5.93;;;;;;;22.26;49.35;94920.94;4972949;28;20489;-68
2022/05/18 02:20:09;;;;;;;7.70;6.60;;;;;;;21.85;49.94;94915.59;4972881;28;20481;-67
2022/05/18 02:22:36;;;;;;;7.20;6.20;;;;;;;22.30;48.83;94924.47;4973466;28;20446;-67
2022/05/18 02:25:04;;;;;;;6.90;6.30;;;;;;;22.23;48.98;94918.09;4973443;28;20565;-66
2022/05/18 02:27:31;;;;;;;6.67;5.97;;;;;;;22.07;49.29;94923.28;4973692;28;20435;-65
2022/05/18 02:29:59;;;;;;;8.97;6.03;;;;;;;22.02;49.47;94912.81;4972790;28;20454;-66
2022/05/18 02:32:26;;;;;;;7.53;5.40;;;;;;;22.04;48.56;94918.59;4972959;28;20461;-66
2022/05/18 02:34:52;;;;;;;6.83;4.90;;;;;;;22.12;48.17;94915.06;4972674;28;20910;-66
2022/05/18 02:37:19;;;;;;;5.93;5.30;;;;;;;22.06;48.26;94916.38;4954455;28;20222;-66
2022/05/18 02:39:46;;;;;;;5.77;4.77;;;;;;;22.00;48.07;94912.34;4972653;28;20957;-66
2022/05/18 02:42:13;;;;;;;6.13;4.30;;;;;;;22.17;47.62;94920.19;4972757;28;20458;-66
2022/05/18 02:44:41;;;;;;;5.40;4.90;;;;;;;22.37;46.91;94915.94;4972829;28;20423;-66
2022/05/18 02:47:07;;;;;;;7.07;4.60;;;;;;;22.36;47.31;94907.16;4974801;28;20456;-66
2022/05/18 02:49:34;;;;;;;4.77;4.30;;;;;;;22.43;47.06;94910.06;4975403;28;20439;-66
2022/05/18 02:52:01;;;;;;;6.53;4.33;;;;;;;22.40;47.17;94920.63;4972852;28;20446;-67
2022/05/18 02:57:14;;;;;;;4.60;4.20;;;;;;;22.09;47.27;94915.72;4972302;28;20486;-67
2022/05/18 02:59:43;;;;;;;4.27;3.80;;;;;;;22.38;46.60;94910.28;4972018;28;20431;-67
2022/05/18 03:02:09;;;;;;;6.13;4.17;;;;;;;22.65;46.33;94917.72;4976033;28;21007;-67
2022/05/18 03:04:36;;;;;;;5.23;3.93;;;;;;;22.64;46.47;94918.06;4972714;28;20446;-65
2022/05/18 03:07:04;;;;;;;4.47;3.80;;;;;;;22.46;46.60;94925.44;4972594;28;20446;-66
2022/05/18 03:09:31;;;;;;;5.63;4.13;;;;;;;22.56;46.69;94927.72;4972266;28;20840;-64
2022/05/18 03:11:58;;;;;;;6.07;3.90;;;;;;;22.45;46.41;94928.44;4972216;28;20450;-66
2022/05/18 03:14:25;;;;;;;6.53;4.20;;;;;;;22.15;47.07;94927.78;4971998;28;20454;-65
2022/05/18 03:16:52;;;;;;;3.60;3.27;;;;;;;22.10;47.09;94927.94;4972056;28;20492;-65
2022/05/18 03:19:20;;;;;;;4.57;3.63;;;;;;;22.39;46.73;94935.84;4972241;28;20211;-66
2022/05/18 03:24:32;;;;;;;5.07;4.00;;;;;;;22.45;46.97;94945.25;4983838;28;20865;-67
2022/05/18 03:26:59;;;;;;;4.93;4.10;;;;;;;22.13;47.17;94946.75;4990575;28;20965;-67
2022/05/18 03:29:26;;;;;;;8.23;4.40;;;;;;;21.96;47.50;94948.78;4991148;28;20458;-66
2022/05/18 03:31:53;;;;;;;7.00;4.50;;;;;;;22.22;47.46;94952.03;4990760;28;20503;-66
2022/05/18 03:34:20;;;;;;;6.37;5.00;;;;;;;22.19;47.25;94946.56;4991088;28;20458;-68
2022/05/18 03:36:47;;;;;;;5.87;5.37;;;;;;;22.37;46.88;94948.75;4989722;28;21313;-70
2022/05/18 03:39:13;;;;;;;6.27;5.30;;;;;;;22.61;46.32;94948.88;4989250;28;20457;-68
2022/05/18 03:41:40;;;;;;;7.10;5.33;;;;;;;22.37;47.00;94948.75;4990536;28;20194;-69
2022/05/18 03:44:08;;;;;;;5.80;5.20;;;;;;;22.56;46.98;94949.09;4991092;28;20556;-69
2022/05/18 03:46:35;;;;;;;6.83;5.73;;;;;;;22.72;46.62;94966.06;4991083;28;20433;-68
2022/05/18 03:49:04;;;;;;;6.47;5.50;;;;;;;22.88;46.52;94958.22;4990659;28;21066;-70
2022/05/18 03:51:31;;;;;;;9.57;5.57;;;;;;;22.60;46.72;94960.69;4990757;28;20434;-69
2022/05/18 03:53:58;;;;;;;6.03;5.43;;;;;;;22.73;46.57;94962.28;4991157;28;20511;-70
2022/05/18 03:56:26;;;;;;;8.03;5.73;;;;;;;22.66;46.25;94962.03;4980255;28;20566;-71
2022/05/18 03:58:53;;;;;;;7.50;5.67;;;;;;;22.63;46.87;94962.69;4971423;28;20463;-70
2022/05/18 04:01:20;;;;;;;7.90;5.40;;;;;;;22.40;47.20;94953.47;4970962;28;20466;-68
2022/05/18 04:03:47;;;;;;;8.90;5.83;;;;;;;22.44;46.98;94959.72;4971318;28;20449;-69
2022/05/18 04:06:15;;;;;;;8.67;6.73;;;;;;;22.36;47.10;94959.75;4971606;28;20203;-69
2022/05/18 04:08:43;;;;;;;9.10;6.10;;;;;;;22.63;47.41;94961.91;4971557;28;20457;-69
2022/05/18 04:11:11;;;;;;;9.27;6.70;;;;;;;22.73;46.88;94956.94;4971163;28;20447;-69
2022/05/18 04:13:38;;;;;;;8.30;7.00;;;;;;;22.53;47.32;94963.09;4971228;28;20430;-69
2022/05/18 04:16:05;;;;;;;14.73;7.33;;;;;;;22.44;47.28;94965.03;4970905;28;20462;-70
2022/05/18 04:18:32;;;;;;;8.10;6.30;;;;;;;22.22;47.81;94962.72;4970444;28;20550;-67
2022/05/18 04:21:00;;;;;;;7.80;6.70;;;;;;;22.54;47.64;94961.97;4970274;28;20851;-67
2022/05/18 04:23:26;;;;;;;7.10;6.40;;;;;;;22.44;47.35;94965.03;4971029;28;20803;-68
2022/05/18 04:25:53;;;;;;;9.40;6.87;;;;;;;22.70;47.17;94962.16;4971008;28;20194;-69
2022/05/18 04:28:20;;;;;;;6.93;6.27;;;;;;;22.49;47.97;94970.19;4970869;28;20702;-68
2022/05/18 04:30:48;;;;;;;9.67;6.97;;;;;;;22.41;48.21;94965.69;4953498;28;20538;-69
2022/05/18 04:33:18;;;;;;;8.37;6.67;;;;;;;22.09;48.53;94974.44;4970567;28;20199;-67
2022/05/18 04:35:48;;;;;;;10.13;7.27;;;;;;;22.14;49.39;94961.69;4971906;28;20195;-64
2022/05/18 04:38:20;;;;;;;20.77;18.57;;;;;;;22.01;49.63;94969.94;4990567;28;20500;-67
2022/05/18 04:40:55;;;;;;;13.10;10.20;;;;;;;22.60;48.15;94967.91;4990137;28;20205;-69
2022/05/18 04:43:23;;;;;;;9.53;8.63;;;;;;;21.91;49.53;94965.78;4990275;28;20429;-69
2022/05/18 04:45:51;;;;;;;8.20;6.80;;;;;;;22.22;49.21;94973.41;4990244;28;20436;-66
2022/05/18 04:48:21;;;;;;;8.63;7.30;;;;;;;22.24;49.27;94971.19;4990074;28;20508;-67
2022/05/18 04:50:48;;;;;;;12.03;7.17;;;;;;;22.40;49.12;94969.47;4990572;28;20198;-67
2022/05/18 04:53:17;;;;;;;17.83;15.97;;;;;;;22.20;49.74;94972.94;4990081;28;20198;-66
2022/05/18 04:55:44;;;;;;;68.87;62.13;;;;;;;22.43;48.46;94952.00;4990217;28;20202;-65
2022/05/18 04:58:12;;;;;;;8.10;7.40;;;;;;;22.47;49.12;94964.38;4989686;28;20256;-66
2022/05/18 05:00:40;;;;;;;12.73;11.47;;;;;;;22.25;49.72;94972.75;4970875;28;20447;-68
2022/05/18 05:03:07;;;;;;;10.93;8.77;;;;;;;22.50;49.76;94969.06;4970500;28;20518;-68
2022/05/18 05:05:34;;;;;;;11.43;8.73;;;;;;;22.75;48.64;94970.75;4970400;28;20446;-66
2022/05/18 05:08:01;;;;;;;14.77;8.60;;;;;;;21.78;50.45;94963.31;4970269;28;20545;-68
2022/05/18 05:10:28;;;;;;;63.60;52.93;;;;;;;22.45;49.34;94971.94;4976679;28;20198;-69
2022/05/18 05:12:54;;;;;;;10.63;8.97;;;;;;;22.64;48.78;94969.59;4989878;28;20481;-68
2022/05/18 05:15:21;;;;;;;10.30;9.20;;;;;;;22.16;49.88;94969.34;4989958;28;20886;-68
2022/05/18 05:17:49;;;;;;;12.63;9.93;;;;;;;22.58;49.38;94978.13;4989948;28;21175;-68
2022/05/18 05:20:17;;;;;;;10.27;9.00;;;;;;;22.27;49.76;94975.84;4989950;28;20477;-69
2022/05/18 05:22:43;;;;;;;13.43;9.80;;;;;;;22.54;49.89;94986.00;4989889;28;20488;-68
2022/05/18 05:25:14;;;;;;;11.50;9.97;;;;;;;22.03;50.88;94987.19;4989673;28;20464;-69
2022/05/18 05:27:41;;;;;;;14.80;10.50;;;;;;;22.30;50.71;94991.22;4989915;28;20853;-68
2022/05/18 05:30:09;;;;;;;11.60;10.40;;;;;;;21.94;51.65;94993.69;4990141;28;20438;-68
2022/05/18 05:32:36;;;;;;;14.73;11.00;;;;;;;22.10;51.32;94992.78;4989772;28;20488;-68
2022/05/18 05:35:04;;;;;;;11.97;10.73;;;;;;;22.03;50.96;94981.06;4989442;28;20816;-69
2022/05/18 05:37:31;;;;;;;13.30;10.67;;;;;;;22.30;51.41;94993.88;4989413;28;20482;-68
2022/05/18 05:39:58;;;;;;;12.10;10.90;;;;;;;22.01;51.97;94999.28;4989444;28;20853;-68
2022/05/18 05:42:25;;;;;;;13.90;10.93;;;;;;;22.20;51.79;95007.63;4989477;28;20593;-69
2022/05/18 05:44:52;;;;;;;12.10;10.80;;;;;;;22.12;51.91;95011.94;4989284;28;20851;-68
2022/05/18 05:47:19;;;;;;;12.27;10.70;;;;;;;22.32;51.21;95007.69;4989391;28;20977;-70
2022/05/18 05:49:46;;;;;;;12.53;11.23;;;;;;;22.61;50.80;95007.63;4989899;28;20878;-68
2022/05/18 05:52:13;;;;;;;12.50;11.30;;;;;;;22.06;51.55;95018.56;4989539;28;20450;-68
2022/05/18 05:54:40;;;;;;;12.33;11.00;;;;;;;21.86;52.91;95021.22;4989416;28;20437;-70
2022/05/18 05:57:09;;;;;;;12.43;11.13;;;;;;;21.63;53.44;95030.53;4989227;28;20445;-68
2022/05/18 05:59:37;;;;;;;13.80;10.47;;;;;;;21.40;54.47;95029.22;4989658;28;20437;-69
2022/05/18 06:02:08;;;;;;;11.73;10.53;;;;;;;21.34;55.17;95027.84;4989073;28;20545;-69
2022/05/18 06:04:36;;;;;;;11.83;10.57;;;;;;;20.79;56.57;95033.91;4989725;28;20866;-67
2022/05/18 06:07:04;;;;;;;11.97;10.60;;;;;;;20.77;57.00;95041.41;4992679;28;20964;-67
2022/05/18 06:09:31;;;;;;;11.50;10.40;;;;;;;20.92;56.63;95042.81;4993880;28;20445;-66
2022/05/18 06:11:58;;;;;;;12.33;11.03;;;;;;;20.99;56.67;95033.28;4993579;28;20445;-68
2022/05/18 06:14:25;;;;;;;12.30;11.00;;;;;;;20.90;56.91;95023.69;4992777;28;20495;-69
2022/05/18 06:16:51;;;;;;;12.37;11.07;;;;;;;20.66;58.12;95048.16;4975394;28;20457;-68
2022/05/18 06:19:18;;;;;;;13.20;11.33;;;;;;;20.85;57.61;95037.19;4975180;28;20492;-68
2022/05/18 06:21:50;;;;;;;13.67;12.07;;;;;;;21.39;56.41;95041.78;4992423;28;20465;-68
2022/05/18 06:24:19;;;;;;;13.17;10.87;;;;;;;20.99;56.88;95051.91;4992811;28;20449;-67
2022/05/18 06:26:46;;;;;;;12.50;11.27;;;;;;;20.79;58.33;95049.88;4992569;28;20445;-68
2022/05/18 06:29:13;;;;;;;12.03;10.70;;;;;;;20.87;57.74;95051.75;4992611;28;20487;-67
2022/05/18 06:31:58;;;;;;;11.33;10.23;;;;;;;21.01;57.54;95057.72;4992454;28;20445;-69
2022/05/18 06:34:27;;;;;;;14.60;10.30;;;;;;;21.09;57.15;95064.13;4992525;28;20453;-67
2022/05/18 06:36:54;;;;;;;11.57;9.63;;;;;;;20.90;58.06;95060.97;4992291;28;20452;-67
2022/05/18 06:39:21;;;;;;;12.83;9.67;;;;;;;20.89;57.88;95065.53;4992449;28;21240;-66
2022/05/18 06:41:48;;;;;;;11.93;9.57;;;;;;;20.80;58.40;95056.75;4992208;28;20453;-67
2022/05/18 06:44:16;;;;;;;13.50;10.77;;;;;;;21.00;57.91;95064.13;4992410;28;20810;-69
2022/05/18 06:46:43;;;;;;;11.77;9.50;;;;;;;20.98;58.02;95074.28;4991965;28;20449;-66
2022/05/18 06:49:11;;;;;;;13.10;9.13;;;;;;;21.14;57.56;95062.09;4992004;28;20426;-68
2022/05/18 06:51:41;;;;;;;12.07;10.37;;;;;;;21.18;57.79;95068.31;4992200;28;20430;-67
2022/05/18 06:54:08;;;;;;;12.30;10.10;;;;;;;21.13;57.59;95065.84;4992149;28;20449;-67
2022/05/18 06:56:40;;;;;;;10.67;9.67;;;;;;;21.33;56.57;95076.94;4992164;28;20437;-66
2022/05/18 06:59:09;;;;;;;10.63;9.63;;;;;;;21.38;56.58;95071.41;4991829;28;20493;-65
2022/05/18 07:01:37;;;;;;;12.90;9.27;;;;;;;21.21;57.43;95068.78;4991908;28;20458;-64
2022/05/18 07:04:06;;;;;;;11.17;9.50;;;;;;;21.22;57.01;95073.03;4991555;28;20536;-69
2022/05/18 07:06:38;;;;;;;10.77;9.77;;;;;;;21.50;56.60;95074.19;4991687;28;20438;-66
2022/05/18 07:09:09;;;;;;;9.63;8.67;;;;;;;21.39;56.37;95072.97;4991581;28;20465;-64
2022/05/18 07:11:41;;;;;;;11.27;8.87;;;;;;;21.67;56.04;95068.81;4991631;28;20515;-67
2022/05/18 07:14:08;;;;;;;13.80;10.03;;;;;;;21.82;55.73;95081.66;4991399;28;20499;-68
2022/05/18 07:16:35;;;;;;;15.20;9.37;;;;;;;21.92;54.99;95070.59;4990658;28;20457;-68
2022/05/18 07:19:02;;;;;;;13.50;10.13;;;;;;;21.97;54.94;95062.41;4991566;28;20863;-64
2022/05/18 07:21:29;;;;;;;11.30;9.23;;;;;;;21.64;55.98;95069.47;4991186;28;20465;-66
2022/05/18 07:23:56;;;;;;;12.20;9.80;;;;;;;21.46;55.50;95075.94;4991118;28;20976;-64
2022/05/18 07:26:25;;;;;;;12.83;11.30;;;;;;;22.14;54.81;95084.44;4991346;28;21043;-67
2022/05/18 07:28:52;;;;;;;10.53;9.43;;;;;;;21.80;54.65;95084.63;4991510;28;20434;-67
2022/05/18 07:31:19;;;;;;;15.23;10.17;;;;;;;22.26;53.89;95082.97;4991052;28;20449;-65
2022/05/18 07:34:06;;;;;;;13.10;11.67;;;;;;;22.48;53.98;95094.13;4991239;28;20449;-66
2022/05/18 07:36:33;;;;;;;11.30;10.17;;;;;;;21.88;54.19;95096.34;4991378;28;20499;-66
2022/05/18 07:39:00;;;;;;;12.00;10.80;;;;;;;22.40;53.79;95086.97;4991161;28;21034;-64
2022/05/18 07:41:27;;;;;;;11.43;10.30;;;;;;;22.13;54.30;95090.13;4991377;28;20450;-67
2022/05/18 07:43:54;;;;;;;11.83;10.27;;;;;;;21.72;54.32;95087.28;4990838;28;20446;-67
2022/05/18 07:46:21;;;;;;;12.17;10.27;;;;;;;21.71;54.87;95096.41;4991020;28;20449;-64
2022/05/18 07:48:48;;;;;;;12.30;11.00;;;;;;;21.67;54.91;95098.13;4990955;28;20447;-67
2022/05/18 07:51:15;;;;;;;12.33;11.13;;;;;;;22.18;53.90;95105.94;4990906;28;20964;-68
2022/05/18 07:53:42;;;;;;;13.30;11.40;;;;;;;21.78;54.55;95097.47;4991163;28;20508;-66
2022/05/18 07:56:12;;;;;;;12.60;11.23;;;;;;;21.66;54.70;95099.25;4990884;28;20877;-65
2022/05/18 07:58:39;;;;;;;15.60;12.00;;;;;;;22.00;53.69;95112.47;4990326;28;20544;-65
2022/05/18 08:01:08;;;;;;;14.17;11.43;;;;;;;22.13;53.33;95108.81;4991211;28;20294;-66
2022/05/18 08:03:35;;;;;;;14.00;12.60;;;;;;;23.01;51.59;95110.22;4990745;28;20452;-69
2022/05/18 08:06:03;;;;;;;12.33;11.03;;;;;;;22.67;52.15;95110.50;4990800;28;20445;-67
2022/05/18 08:08:30;;;;;;;12.97;11.67;;;;;;;21.89;53.07;95109.38;4990755;28;20560;-66
2022/05/18 08:16:30;;;;;;;13.17;11.87;;;;;;;22.51;52.04;95109.50;4990273;28;20473;-65
2022/05/18 08:18:57;;;;;;;13.23;11.60;;;;;;;22.56;51.59;95119.22;4990093;28;20485;-65
2022/05/18 08:21:25;;;;;;;12.57;11.37;;;;;;;21.85;53.06;95123.66;4989901;28;20549;-66
2022/05/18 08:23:52;;;;;;;13.87;10.70;;;;;;;22.10;52.64;95109.44;4990094;28;20852;-66
2022/05/18 08:26:25;;;;;;;13.43;11.80;;;;;;;22.38;52.61;95120.41;4990112;28;20532;-68
2022/05/18 08:28:52;;;;;;;14.47;11.63;;;;;;;21.81;52.95;95117.41;4989709;28;20972;-67
2022/05/18 08:31:21;;;;;;;12.70;11.40;;;;;;;21.76;53.78;95114.88;4990492;28;20477;-66
2022/05/18 08:33:48;;;;;;;14.23;11.00;;;;;;;21.99;53.28;95113.56;4990156;28;20198;-69
2022/05/18 08:36:17;;;;;;;12.57;11.43;;;;;;;21.98;52.90;95109.34;4990085;28;21039;-66
2022/05/18 08:38:45;;;;;;;12.87;11.07;;;;;;;22.58;51.56;95104.44;4990022;28;20473;-66
2022/05/18 08:41:39;;;;;;;12.20;10.93;;;;;;;22.62;51.42;95105.38;4990112;28;20991;-68
2022/05/18 08:44:07;;;;;;;12.83;10.10;;;;;;;21.82;52.85;95109.06;4980044;28;20461;-67
2022/05/18 08:46:35;;;;;;;12.43;11.23;;;;;;;22.55;52.00;95104.28;4990114;28;20452;-68
2022/05/18 08:49:27;;;;;;;10.93;9.83;;;;;;;22.23;50.51;95103.06;4989947;28;21059;-65
2022/05/18 08:52:03;;;;;;;11.40;10.30;;;;;;;22.63;50.24;95112.25;4989771;28;20477;-66
2022/05/18 08:54:57;;;;;;;12.20;9.63;;;;;;;22.51;49.80;95098.03;4990070;28;20434;-65
2022/05/18 08:57:30;;;;;;;10.53;9.43;;;;;;;22.84;49.23;95106.94;4989703;28;20576;-65
2022/05/18 09:00:00;;;;;;;10.83;9.73;;;;;;;22.04;49.57;95100.06;4989909;28;20252;-67
2022/05/18 09:02:32;;;;;;;11.93;9.20;;;;;;;22.78;49.49;95103.66;4989793;28;20297;-66
2022/05/18 09:05:11;;;;;;;10.10;9.20;;;;;;;22.76;49.53;95108.56;4989898;28;20482;-67
2022/05/18 09:08:20;;;;;;;11.27;9.50;;;;;;;22.09;50.96;95097.19;4990135;28;20450;-66
2022/05/18 09:10:53;;;;;;;10.10;9.10;;;;;;;22.42;50.08;95092.75;4989976;28;20202;-66
2022/05/18 09:13:21;;;;;;;15.17;13.03;;;;;;;23.36;48.51;95094.66;4990087;28;20202;-67
2022/05/18 09:16:04;;;;;;;12.53;11.43;;;;;;;24.03;46.76;95083.53;4989991;28;20639;-67
2022/05/18 09:18:46;;;;;;;10.83;9.30;;;;;;;24.48;46.61;95084.16;4989645;28;20384;-70
2022/05/18 09:21:20;;;;;;;9.43;8.40;;;;;;;23.49;47.46;95084.78;4989396;28;20326;-65
2022/05/18 09:23:58;;;;;;;8.43;7.57;;;;;;;23.64;47.47;95081.47;4989584;28;20198;-66
2022/05/18 09:27:02;;;;;;;10.33;7.77;;;;;;;23.71;46.53;95068.31;4990499;28;20206;-68
2022/05/18 09:30:02;;;;;;;8.60;7.37;;;;;;;23.75;47.11;95066.53;4951157;28;20206;-66
2022/05/18 09:32:41;;;;;;;9.40;7.10;;;;;;;23.16;47.25;95067.97;4989635;28;20273;-67
2022/05/18 09:35:56;;;;;;;10.03;6.93;;;;;;;23.54;45.62;95076.56;4989983;28;20257;-68
2022/05/18 09:38:30;;;;;;;8.60;6.17;;;;;;;23.70;44.94;95066.75;4923112;28;20235;-65
2022/05/18 09:41:00;;;;;;;7.47;6.67;;;;;;;23.88;44.54;95066.22;4993084;28;20202;-67
2022/05/18 09:43:31;;;;;;;12.23;6.73;;;;;;;23.95;44.42;95062.97;4993481;28;20187;-66
2022/05/18 09:45:59;;;;;;;7.43;6.73;;;;;;;24.38;43.33;95065.84;4993470;28;20293;-66
2022/05/18 09:48:36;;;;;;;7.97;7.17;;;;;;;24.40;43.99;95071.66;4993514;28;20199;-67
2022/05/18 09:51:06;;;;;;;7.80;6.83;;;;;;;24.61;44.34;95063.47;4993089;28;20198;-65
2022/05/18 09:53:33;;;;;;;8.83;8.03;;;;;;;24.59;46.67;95071.06;4993529;28;20214;-68
2022/05/18 09:56:00;;;;;;;13.13;8.07;;;;;;;24.09;48.28;95082.19;4992975;28;20199;-68
2022/05/18 09:58:36;;;;;;;15.30;8.93;;;;;;;23.75;50.07;95053.16;4993140;28;20226;-66
2022/05/18 10:09:49;;;;;;;12.33;7.27;;;;;;;22.27;53.42;95096.00;4992579;28;20538;-69
2022/05/18 10:12:26;;;;;;;10.63;7.13;;;;;;;22.05;54.14;95114.94;4992568;28;20194;-70
2022/05/18 10:15:05;;;;;;;9.63;7.73;;;;;;;22.10;54.35;95120.09;4992567;28;20282;-69
2022/05/18 10:17:37;;;;;;;12.73;8.60;;;;;;;22.58;53.92;95133.84;4993162;28;20452;-69
2022/05/18 10:20:19;;;;;;;9.20;8.03;;;;;;;22.72;53.67;95123.66;4992373;28;20488;-69
2022/05/18 10:22:48;;;;;;;11.37;9.93;;;;;;;22.75;54.20;95131.06;4992558;28;20445;-68
2022/05/18 10:25:24;;;;;;;12.90;10.63;;;;;;;22.63;54.79;95157.69;4992262;28;20957;-71
2022/05/18 10:27:51;;;;;;;17.73;10.77;;;;;;;22.40;55.58;95156.38;4992278;28;20452;-69
2022/05/18 10:30:28;;;;;;;12.13;7.17;;;;;;;22.13;54.60;95148.84;4993036;28;20450;-69
2022/05/18 10:33:02;;;;;;;9.67;6.27;;;;;;;22.20;53.40;95148.31;4992400;28;20456;-68
2022/05/18 10:35:48;;;;;;;7.57;6.70;;;;;;;22.46;52.45;95155.09;4992238;28;20219;-69
2022/05/18 10:38:24;;;;;;;11.50;7.60;;;;;;;22.37;52.88;95159.69;4992226;28;20493;-69
2022/05/18 10:41:16;;;;;;;7.83;6.47;;;;;;;22.38;52.43;95163.94;4992286;28;20536;-68
2022/05/18 10:43:58;;;;;;;8.87;6.87;;;;;;;22.66;52.49;95164.28;4991915;28;20453;-68
2022/05/18 10:46:39;;;;;;;6.73;6.10;;;;;;;22.51;53.41;95172.81;4991859;28;20934;-70
2022/05/18 10:49:13;;;;;;;6.80;5.93;;;;;;;22.79;52.54;95174.69;4978030;28;20282;-69
2022/05/18 10:51:43;;;;;;;12.67;6.47;;;;;;;22.88;52.83;95172.75;4960471;28;20844;-68
2022/05/18 10:54:29;;;;;;;13.53;7.20;;;;;;;22.71;52.84;95167.53;4990514;28;20438;-69
2022/05/18 10:57:18;;;;;;;9.87;6.57;;;;;;;22.81;52.72;95193.84;4991714;28;20854;-69
2022/05/18 11:00:01;;;;;;;10.83;6.90;;;;;;;22.95;52.44;95185.59;4991300;28;20226;-68
2022/05/18 11:02:55;;;;;;;9.43;5.73;;;;;;;22.93;51.98;95201.16;4991276;28;20445;-68
2022/05/18 11:05:35;;;;;;;8.53;7.37;;;;;;;22.98;53.13;95198.31;4991355;28;20445;-68
2022/05/18 11:08:06;;;;;;;8.90;6.23;;;;;;;23.01;52.62;95198.44;4991327;28;20673;-67
2022/05/18 11:10:46;;;;;;;10.70;5.83;;;;;;;23.15;52.81;95211.56;4991510;28;20453;-67
2022/05/18 11:13:20;;;;;;;5.87;4.50;;;;;;;23.29;50.73;95213.94;4991003;28;20194;-67
2022/05/18 11:16:04;;;;;;;8.27;4.90;;;;;;;23.35;50.78;95223.38;4990404;28;20217;-67
2022/05/18 11:18:40;;;;;;;7.43;4.57;;;;;;;23.24;50.88;95228.31;4990682;28;21019;-66
2022/05/18 11:21:21;;;;;;;8.50;4.23;;;;;;;23.36;51.98;95220.34;4990034;28;20604;-68
2022/05/18 11:24:06;;;;;;;3.80;2.10;;;;;;;23.06;51.08;95222.28;4990287;28;20226;-67
2022/05/18 11:27:00;;;;;;;5.27;2.10;;;;;;;23.08;51.14;95227.34;4991054;28;20433;-67
2022/05/18 11:29:49;;;;;;;3.67;2.20;;;;;;;22.92;50.55;95232.44;4990747;28;20727;-66
2022/05/18 11:32:18;;;;;;;1.93;1.83;;;;;;;22.86;50.30;95244.44;4986721;28;20454;-67
2022/05/18 11:34:54;;;;;;;2.20;2.00;;;;;;;22.73;51.63;95242.81;4984645;28;20273;-67
2022/05/18 11:38:00;;;;;;;3.03;1.93;;;;;;;22.70;52.03;95246.09;4990536;28;20206;-67
2022/05/18 11:40:46;;;;;;;2.23;1.60;;;;;;;22.55;51.26;95249.34;4990559;28;20230;-66
2022/05/18 11:43:54;;;;;;;3.10;1.30;;;;;;;22.42;49.95;95252.97;4988722;28;20213;-66
2022/05/18 11:46:48;;;;;;;1.00;0.90;;;;;;;22.15;49.30;95258.75;4970910;28;20303;-66
2022/05/18 11:49:20;;;;;;;2.17;1.27;;;;;;;21.82;49.81;95258.47;4971309;28;20434;-65
2022/05/18 11:52:25;;;;;;;1.97;1.30;;;;;;;22.14;49.34;95265.94;4978485;28;20445;-66
2022/05/18 11:55:10;;;;;;;1.40;1.30;;;;;;;22.04;50.24;95268.19;4951951;28;20990;-65
2022/05/18 11:57:49;;;;;;;1.77;1.40;;;;;;;21.80;49.46;95265.25;4976381;28;20459;-66
2022/05/18 12:00:39;;;;;;;1.90;1.60;;;;;;;22.21;49.30;95265.44;4970523;28;20470;-66
2022/05/18 12:03:34;;;;;;;3.10;2.80;;;;;;;22.47;49.49;95274.16;4977853;28;20443;-65
2022/05/18 12:06:45;;;;;;;1.73;1.37;;;;;;;22.34;49.60;95282.38;4988747;28;20452;-66